ADDS METAR Data INFO
IDs: Format: Raw Decoded Include TAF

Data at: 0308 UTC 16 Aug 2018

PFKT 160256Z AUTO 25005KT 10SM SCT100 11/04 A2996 RMK AO2 SLP146 T01060044 56006
PFKT 160156Z AUTO 26005KT 9SM FEW085 11/03 A2997 RMK AO2 SLP148 T01060028
PFKT 160056Z AUTO 31004KT 10SM SCT110 11/05 A2997 RMK AO2 SLP149 T01060050
PFKT 152356Z AUTO 29006KT 10SM OVC095 09/04 A2998 RMK AO2 SLP152 T00940044 10106 20078 58005
PFKT 152256Z AUTO 32005KT 10SM OVC085 09/04 A3000 RMK AO2 SLP157 T00890044
PFKT 152156Z AUTO 26005KT 10SM FEW100 09/05 A3001 RMK AO2 SLP160 T00890050
PFKT 152056Z AUTO 20007KT 10SM CLR 09/05 A3000 RMK AO2 SLP157 T00940050 58004
PFKT 151956Z AUTO 00000KT 10SM CLR 09/04 A3000 RMK AO2 SLP159 T00940039
PFKT 151856Z AUTO 00000KT 10SM CLR 09/04 A3001 RMK AO2 SLP161 T00890039
PFKT 151756Z AUTO 00000KT 10SM CLR 08/04 A3001 RMK AO2 SLP161 T00780039 10078 20033 53003
PFKT 151656Z AUTO 03005KT 10SM CLR 06/04 A3000 RMK AO2 SLP158 T00610039
PFKT 151556Z AUTO 35003KT 10SM CLR 06/03 A3000 RMK AO2 SLP157 T00560028
PFKT 151456Z AUTO VRB03KT 10SM CLR 04/02 A3000 RMK AO2 SLP158 T00390017 53000
PFKT 151356Z AUTO 01008KT 10SM CLR 06/03 A3000 RMK AO2 SLP157 T00610028
PFKT 151256Z AUTO 00000KT 10SM CLR 07/03 A2999 RMK AO2 SLP156 T00670033
PFKT 151156Z AUTO VRB04KT 10SM CLR 06/03 A3000 RMK AO2 SLP158 T00610028 10083 20056 51007
PFKT 151056Z AUTO 36013KT 10SM CLR 07/03 A2999 RMK AO2 SLP154 T00670033
PFKT 150956Z AUTO 02009G16KT 10SM CLR 07/03 A2999 RMK AO2 SLP156 T00670033
PFKT 150856Z AUTO 01015KT 10SM CLR 07/03 A2997 RMK AO2 SLP150 T00720033 401000061 51013
PFKT 150756Z AUTO 36014KT 10SM CLR 07/03 A2997 RMK AO2 SLP147 T00720033
PFKT 150656Z AUTO 35008G19KT 10SM CLR 08/03 A2995 RMK AO2 SLP143 T00780033
PFKT 150556Z AUTO 36017G23KT 10SM CLR 08/03 A2994 RMK AO2 SLP138 T00830028 10100 20083 50007
PFKT 150456Z AUTO 36013G20KT 10SM SCT034 09/02 A2995 RMK AO2 SLP140 T00940022
PFKT 150356Z AUTO 01012G24KT 10SM BKN038 10/02 A2993 RMK AO2 SLP136 T01000017
PFKT 150256Z AUTO 01021G26KT 10SM BKN038 10/02 A2992 RMK AO2 PK WND 01026/0255 SLP131 T01000017 50002
PFKT 150156Z AUTO 01015G24KT 10SM OVC036 10/01 A2992 RMK AO2 SLP131 T01000011
PFKT 150056Z AUTO 01016G22KT 10SM OVC034 09/01 A2993 RMK AO2 PK WND 01026/2357 SLP133 T00890011
PFKT 142356Z AUTO 01021G27KT 10SM BKN032 09/01 A2991 RMK AO2 PK WND 36027/2352 SLP128 T00890011 10094 20067 50001
PFKT 142256Z AUTO 02017G25KT 10SM OVC030 08/01 A2992 RMK AO2 SLP131 T00830011
PFKT 142247Z AUTO 01018G23KT 10SM OVC030 08/01 A2992 RMK AO2
PFKT 142208Z AUTO 36015KT 10SM OVC028 08/02 A2992 RMK AO2
PFKT 142156Z AUTO 36013KT 10SM OVC030 08/01 A2992 RMK AO2 SLP131 T00780011
PFKT 142056Z AUTO 01017G22KT 10SM SCT030 08/01 A2991 RMK AO2 SLP128 T00780011 51008
PFKT 141956Z AUTO 35017G21KT 10SM OVC030 08/02 A2990 RMK AO2 PK WND 01026/1919 SLP125 T00780017
PFKT 141905Z AUTO 01014G22KT 10SM OVC028 07/02 A2989 RMK AO2
PFKT 141856Z AUTO 01013G24KT 10SM OVC030 07/02 A2989 RMK AO2 SLP123 T00720017
PFKT 141756Z AUTO 36014G21KT 10SM OVC030 07/01 A2988 RMK AO2 SLP120 T00670011 10072 20061 51004
PFKT 141656Z AUTO 35013G18KT 10SM OVC028 07/02 A2988 RMK AO2 SLP117 T00670017
PFKT 141556Z AUTO 35013G17KT 10SM OVC028 06/02 A2987 RMK AO2 SLP115 T00610022